Strona główna
METAR-TAF:

METAR-TAF

Lotnisko :

Port lotniczy Phitsanulok

Phitsanulok, Tajlandia

Szerokość geograficzna: 16-46-23N, Długość geograficzna: 100-16-56E, wysokość: 47 m

Aktualna obserwacja pogody

Raport powstał 41 minut temu, godzina 03:00 UTC
Wiatr 3 kt od wschód, zmienny między północ i południowo-południowy wschód
Temperatura 22°C
Wilgotność 50%
Ciśnienie 1017 hPa
Widzialność: 6000 m

METAR: VTPP 100300Z 08003KT 360V150 6000 NSC 22/11 Q1017 NOSIG

czas: 10:41 (03:41 UTC)

Prognoza

Raport powstał 4 godziny i 41 minut temu, godzina 23:00 UTC
Prognoza ważna od 10 godzina 00 UTC do 10 godzina 24 UTC
Wiatr 5 kt od zachodnio-północny zachód
Widzialność: 5000 m
zamglenie
Stopniowe zmiany
od 10 godzina 01 UTC do 10 godzina 03 UTC
Widzialność 10 km lub więcej

TAF: VTPP 092300Z 1000/1024 29005KT 5000 BR NSC BECMG 1001/1003 9999 NSW

Obserwacja i prognoza pogody dla ponad 4000 lotnisk (raport METAR i TAF).

Dostępne stacje oznaczono żółtymi i czerwonymi punktami na mapie.

Najedź kursorem aby zobaczyć nazwę stacji.

Kliknij aby zobaczyć obserwacje i prognozy pogody.

Aby zmienić mapę: kliknij na zielony przycisk z czarnym krzyżykiem, aby powiększyć; na zielony przycisk z myślnikiem, aby pomniejszyć; na zielone strzałki, aby przejść do map sąsiednich.


METAR-TAF: